createdAt,value
2023-04-24T00:00:26.218Z,63.05
2023-04-24T00:03:14.281Z,63.98
2023-04-24T00:05:42.903Z,64.55
2023-04-24T00:08:10.819Z,64.65
2023-04-24T00:10:38.865Z,64.81
2023-04-24T00:13:07.026Z,65.10
2023-04-24T00:15:35.360Z,65.17
2023-04-24T00:18:03.618Z,64.84
2023-04-24T00:20:33.550Z,65.88
2023-04-24T00:23:01.545Z,66.29
2023-04-24T00:25:29.743Z,65.93
2023-04-24T00:27:57.649Z,65.67
2023-04-24T00:30:25.785Z,66.45
2023-04-24T00:32:53.782Z,67.14
2023-04-24T00:35:22.085Z,66.57
2023-04-24T00:37:50.072Z,66.41
2023-04-24T00:40:18.182Z,67.41
2023-04-24T00:42:46.609Z,67.97
2023-04-24T00:45:15.212Z,68.03
2023-04-24T00:47:43.469Z,68.36
2023-04-24T00:50:12.396Z,68.35
2023-04-24T00:52:42.016Z,68.63
2023-04-24T00:55:10.323Z,69.20
2023-04-24T00:57:39.185Z,68.98
2023-04-24T01:00:17.245Z,69.58
2023-04-24T01:02:48.444Z,69.58
2023-04-24T01:05:18.438Z,69.49
2023-04-24T01:07:49.310Z,69.85
2023-04-24T01:10:18.859Z,69.89
2023-04-24T01:12:47.855Z,70.15
2023-04-24T01:15:16.580Z,70.16
2023-04-24T01:17:44.668Z,70.34
2023-04-24T01:20:13.797Z,70.46
2023-04-24T01:22:43.585Z,70.72
2023-04-24T01:25:11.661Z,71.06
2023-04-24T01:27:39.880Z,70.88
2023-04-24T01:30:09.486Z,71.03
2023-04-24T01:32:38.556Z,71.39
2023-04-24T01:35:07.817Z,71.69
2023-04-24T01:37:38.161Z,71.64
2023-04-24T01:40:07.752Z,71.35
2023-04-24T01:42:36.038Z,71.72
2023-04-24T01:45:06.530Z,71.67
2023-04-24T01:47:34.820Z,72.07
2023-04-24T01:50:02.785Z,71.97
2023-04-24T01:52:32.278Z,72.03
2023-04-24T01:55:05.622Z,72.16
2023-04-24T01:57:34.319Z,72.51
2023-04-24T02:00:05.271Z,72.55
2023-04-24T02:02:43.117Z,72.74
2023-04-24T02:05:12.614Z,72.97
2023-04-24T02:07:40.932Z,73.04
2023-04-24T02:10:10.530Z,72.14
2023-04-24T02:12:38.436Z,72.98
2023-04-24T02:15:07.553Z,73.71
2023-04-24T02:17:39.711Z,72.97
2023-04-24T02:20:08.309Z,73.63
2023-04-24T02:22:36.344Z,73.99
2023-04-24T02:25:04.961Z,74.24
2023-04-24T02:27:33.271Z,74.39
2023-04-24T02:30:01.658Z,73.68
2023-04-24T02:32:29.850Z,74.23
2023-04-24T02:34:57.762Z,74.52
2023-04-24T02:37:26.191Z,74.52
2023-04-24T02:39:54.104Z,74.91
2023-04-24T02:42:22.147Z,75.12
2023-04-24T02:44:51.800Z,75.29
2023-04-24T02:47:19.745Z,75.42
2023-04-24T02:49:47.709Z,75.59
2023-04-24T02:52:16.420Z,75.68
2023-04-24T02:54:44.705Z,76.16
2023-04-24T02:57:12.748Z,76.97
2023-04-24T02:59:41.927Z,76.09
2023-04-24T03:02:10.183Z,75.59
2023-04-24T03:04:38.423Z,76.18
2023-04-24T03:07:06.978Z,76.43
2023-04-24T03:09:34.926Z,77.06
2023-04-24T03:12:02.953Z,77.21
2023-04-24T03:14:32.594Z,77.69
2023-04-24T03:17:00.786Z,77.67
2023-04-24T03:19:28.662Z,77.39
2023-04-24T03:22:03.534Z,78.49
2023-04-24T03:24:32.550Z,78.27
2023-04-24T03:27:01.232Z,78.15
2023-04-24T03:29:47.676Z,78.91
2023-04-24T03:32:16.737Z,79.56
2023-04-24T03:34:45.731Z,79.73
2023-04-24T03:37:13.765Z,79.96
2023-04-24T03:39:43.396Z,79.40
2023-04-24T03:42:12.470Z,79.83
2023-04-24T03:44:49.438Z,79.89
2023-04-24T03:47:17.801Z,80.02
2023-04-24T03:49:46.324Z,79.73
2023-04-24T03:52:14.231Z,79.86
2023-04-24T03:54:42.852Z,80.03
2023-04-24T03:57:11.171Z,80.49
2023-04-24T03:59:42.154Z,80.59
2023-04-24T04:02:43.847Z,80.25
2023-04-24T04:05:12.499Z,80.44
2023-04-24T04:07:41.053Z,80.53
2023-04-24T04:10:09.419Z,80.08
2023-04-24T04:12:38.369Z,80.12
2023-04-24T04:15:07.900Z,80.19
2023-04-24T04:17:36.637Z,80.04
2023-04-24T04:20:10.054Z,80.20
2023-04-24T04:22:42.634Z,80.35
2023-04-24T04:25:12.816Z,80.55
2023-04-24T04:27:42.694Z,80.77
2023-04-24T04:34:39.138Z,79.58
2023-04-24T04:37:08.481Z,77.22
2023-04-24T04:39:47.559Z,78.07
2023-04-24T04:42:24.829Z,76.14
2023-04-24T04:44:53.128Z,76.11
2023-04-24T04:47:25.565Z,73.05
2023-04-24T04:49:55.267Z,75.50
2023-04-24T04:52:26.938Z,75.32
2023-04-24T04:55:01.802Z,72.15
2023-04-24T04:57:48.177Z,69.67
2023-04-24T05:00:16.783Z,68.82
2023-04-24T05:02:49.413Z,68.06
2023-04-24T05:05:18.685Z,64.00
2023-04-24T05:07:47.196Z,60.98
2023-04-24T05:10:15.666Z,58.60
2023-04-24T05:12:45.716Z,58.49
2023-04-24T05:15:14.483Z,56.75
2023-04-24T05:17:43.758Z,56.28
2023-04-24T05:20:12.341Z,55.60
2023-04-24T05:22:40.390Z,54.70
2023-04-24T05:25:09.492Z,52.87
2023-04-24T05:27:42.154Z,51.66
2023-04-24T05:30:15.238Z,52.38
2023-04-24T05:32:43.355Z,51.69
2023-04-24T05:35:11.235Z,51.63
2023-04-24T05:37:39.318Z,51.16
2023-04-24T05:40:07.891Z,51.43
2023-04-24T05:42:35.844Z,51.60
2023-04-24T05:45:04.592Z,51.00
2023-04-24T05:47:32.745Z,51.28
2023-04-24T05:50:01.539Z,51.37
2023-04-24T05:52:29.921Z,50.39
2023-04-24T05:54:58.039Z,49.82
2023-04-24T05:57:27.564Z,50.62
2023-04-24T05:59:59.640Z,50.74
2023-04-24T06:02:28.881Z,49.67
2023-04-24T06:04:58.768Z,49.49
2023-04-24T06:07:29.651Z,48.71
2023-04-24T06:09:58.026Z,49.60
2023-04-24T06:12:27.138Z,48.84
2023-04-24T06:15:02.183Z,48.38
2023-04-24T06:17:49.385Z,48.49
2023-04-24T06:20:17.655Z,47.42
2023-04-24T06:22:45.756Z,47.85
2023-04-24T06:25:14.043Z,47.13
2023-04-24T06:27:42.194Z,47.45
2023-04-24T06:30:10.433Z,46.29
2023-04-24T06:32:38.270Z,46.67
2023-04-24T06:35:08.463Z,45.87
2023-04-24T06:37:36.692Z,44.75
2023-04-24T06:40:06.521Z,42.60
2023-04-24T06:42:36.181Z,41.22
2023-04-24T06:45:05.088Z,40.73
2023-04-24T06:47:33.602Z,40.98
2023-04-24T06:50:01.769Z,41.70
2023-04-24T06:52:29.668Z,42.04
2023-04-24T06:55:01.345Z,41.18
2023-04-24T06:57:29.504Z,39.98
2023-04-24T06:59:57.459Z,39.22
2023-04-24T07:02:25.864Z,39.09
2023-04-24T07:04:54.101Z,39.46
2023-04-24T07:07:23.510Z,39.44
2023-04-24T07:09:52.962Z,39.28
2023-04-24T07:12:22.758Z,39.60
2023-04-24T07:14:51.731Z,40.18
2023-04-24T07:17:19.868Z,40.25
2023-04-24T07:19:47.699Z,40.83
2023-04-24T07:22:18.261Z,41.17
2023-04-24T07:24:46.113Z,41.85
2023-04-24T07:27:16.264Z,41.85
2023-04-24T07:29:44.637Z,42.34
2023-04-24T07:32:13.174Z,42.56
2023-04-24T07:34:41.502Z,43.18
2023-04-24T07:37:09.567Z,43.65
2023-04-24T07:39:37.442Z,44.21
2023-04-24T07:42:05.541Z,44.82
2023-04-24T07:44:33.330Z,45.34
2023-04-24T07:47:01.262Z,45.75
2023-04-24T07:49:29.338Z,46.17
2023-04-24T07:51:57.136Z,46.44
2023-04-24T07:54:25.011Z,46.89
2023-04-24T07:56:52.863Z,47.32
2023-04-24T07:59:20.762Z,47.40
2023-04-24T08:01:48.582Z,46.40
2023-04-24T08:04:16.659Z,44.90
2023-04-24T08:06:44.729Z,44.72
2023-04-24T08:09:12.631Z,44.71
2023-04-24T08:11:40.615Z,45.14
2023-04-24T08:14:08.413Z,44.43
2023-04-24T08:16:37.013Z,44.38
2023-04-24T08:19:05.736Z,43.55
2023-04-24T08:21:33.867Z,42.38
2023-04-24T08:24:06.083Z,42.18
2023-04-24T08:26:34.303Z,42.20
2023-04-24T08:29:02.229Z,42.11
2023-04-24T08:31:30.102Z,42.35
2023-04-24T08:33:58.070Z,42.78
2023-04-24T08:36:35.922Z,42.90
2023-04-24T08:39:11.848Z,42.57
2023-04-24T08:41:43.916Z,42.88
2023-04-24T08:44:12.235Z,43.25
2023-04-24T08:46:41.026Z,42.65
2023-04-24T08:49:09.997Z,42.66
2023-04-24T08:51:38.032Z,42.17
2023-04-24T08:54:06.053Z,41.69
2023-04-24T08:56:35.018Z,42.02
2023-04-24T08:59:03.123Z,42.15
2023-04-24T09:01:33.183Z,42.27
2023-04-24T09:04:03.458Z,42.72
2023-04-24T09:06:33.493Z,43.09
2023-04-24T09:09:02.973Z,43.38
2023-04-24T09:11:34.126Z,43.65
2023-04-24T09:14:02.429Z,44.07
2023-04-24T09:16:31.068Z,44.10
2023-04-24T09:18:59.056Z,43.60
2023-04-24T09:21:32.850Z,43.48
2023-04-24T09:24:02.043Z,43.16
2023-04-24T09:26:33.939Z,43.14
2023-04-24T09:29:02.186Z,43.41
2023-04-24T09:31:30.776Z,43.14
2023-04-24T09:34:01.557Z,43.08
2023-04-24T09:36:34.402Z,42.47
2023-04-24T09:39:03.926Z,41.69
2023-04-24T09:41:33.521Z,41.38
2023-04-24T09:44:17.691Z,41.22
2023-04-24T09:46:46.595Z,41.39
2023-04-24T09:49:17.188Z,42.22
2023-04-24T09:51:47.643Z,42.05
2023-04-24T09:54:17.277Z,42.26
2023-04-24T09:56:46.552Z,42.27
2023-04-24T09:59:16.175Z,42.74
2023-04-24T10:01:45.797Z,43.14
2023-04-24T10:04:25.338Z,42.35
2023-04-24T10:06:54.717Z,42.32
2023-04-24T10:09:24.591Z,42.01
2023-04-24T10:11:54.685Z,41.54
2023-04-24T10:14:26.178Z,41.82
2023-04-24T10:16:54.993Z,41.73
2023-04-24T10:19:26.621Z,41.97
2023-04-24T10:21:56.838Z,41.70
2023-04-24T10:24:24.679Z,41.53
2023-04-24T10:26:52.837Z,41.82
2023-04-24T10:29:22.469Z,41.84
2023-04-24T10:31:50.458Z,41.70
2023-04-24T10:34:19.489Z,41.72
2023-04-24T10:36:49.922Z,41.90
2023-04-24T10:39:18.037Z,41.77
2023-04-24T10:41:47.679Z,41.99
2023-04-24T10:44:16.583Z,42.17
2023-04-24T10:46:46.021Z,42.10
2023-04-24T10:49:14.114Z,42.33
2023-04-24T10:51:54.508Z,43.24
2023-04-24T10:54:28.467Z,42.79
2023-04-24T10:57:15.372Z,41.31
2023-04-24T10:59:43.263Z,41.18
2023-04-24T11:04:36.783Z,39.50
2023-04-24T11:07:05.836Z,37.20
2023-04-24T11:09:36.013Z,36.92
2023-04-24T11:12:10.292Z,36.07
2023-04-24T11:14:57.058Z,36.39
2023-04-24T11:17:38.105Z,36.28
2023-04-24T11:20:26.899Z,36.49
2023-04-24T11:22:58.663Z,36.15
2023-04-24T11:25:26.847Z,36.18
2023-04-24T11:28:05.688Z,36.66
2023-04-24T11:30:35.126Z,37.69
2023-04-24T11:33:08.171Z,36.75
2023-04-24T11:35:41.596Z,35.22
2023-04-24T11:40:42.955Z,33.81
2023-04-24T11:43:12.226Z,35.62
2023-04-24T11:45:49.520Z,35.03
2023-04-24T11:48:23.767Z,34.74
2023-04-24T11:50:52.630Z,34.41
2023-04-24T11:53:23.449Z,34.45
2023-04-24T11:55:51.366Z,34.84
2023-04-24T11:58:22.979Z,34.78
2023-04-24T12:00:58.175Z,34.86
2023-04-24T12:03:26.765Z,34.50
2023-04-24T12:06:09.563Z,33.49
2023-04-24T12:08:38.526Z,33.55
2023-04-24T12:11:08.495Z,34.34
2023-04-24T12:13:37.359Z,34.02
2023-04-24T12:16:06.573Z,34.11
2023-04-24T12:18:34.808Z,34.17
2023-04-24T12:21:27.471Z,34.66
2023-04-24T12:23:59.228Z,34.87
2023-04-24T12:26:28.526Z,34.46
2023-04-24T12:28:56.540Z,34.62
2023-04-24T12:31:24.908Z,35.03
2023-04-24T12:34:21.825Z,35.13
2023-04-24T12:36:50.196Z,35.95
2023-04-24T12:39:20.449Z,36.36
2023-04-24T12:42:02.362Z,36.71
2023-04-24T12:44:35.720Z,36.94
2023-04-24T12:47:04.665Z,37.65
2023-04-24T12:49:33.350Z,38.48
2023-04-24T12:52:01.302Z,39.21
2023-04-24T12:54:33.776Z,39.70
2023-04-24T12:57:01.833Z,39.79
2023-04-24T12:59:29.954Z,40.41
2023-04-24T13:01:58.025Z,41.03
2023-04-24T13:04:26.135Z,40.91
2023-04-24T13:06:54.079Z,42.14
2023-04-24T13:09:21.933Z,42.11
2023-04-24T13:11:50.895Z,42.33
2023-04-24T13:14:18.905Z,41.82
2023-04-24T13:16:46.898Z,42.23
2023-04-24T13:19:14.884Z,41.45
2023-04-24T13:21:42.890Z,42.27
2023-04-24T13:24:11.158Z,41.96
2023-04-24T13:26:39.063Z,43.17
2023-04-24T13:29:08.733Z,43.06
2023-04-24T13:31:36.987Z,42.54
2023-04-24T13:34:05.404Z,42.91
2023-04-24T13:36:33.636Z,42.58
2023-04-24T13:39:01.578Z,42.67
2023-04-24T13:41:29.903Z,42.45
2023-04-24T13:43:57.815Z,42.49
2023-04-24T13:46:25.876Z,42.74
2023-04-24T13:48:53.762Z,42.94
2023-04-24T13:51:21.749Z,42.64
2023-04-24T13:53:50.207Z,42.48
2023-04-24T13:56:18.410Z,41.97
2023-04-24T13:58:46.456Z,41.69
2023-04-24T14:01:15.113Z,41.76
2023-04-24T14:03:44.555Z,41.03
2023-04-24T14:06:12.732Z,40.23
2023-04-24T14:08:40.528Z,39.77
2023-04-24T14:11:08.759Z,39.45
2023-04-24T14:13:37.556Z,38.98
2023-04-24T14:16:06.093Z,39.20
2023-04-24T14:18:34.202Z,38.93
2023-04-24T14:21:03.306Z,39.01
2023-04-24T14:23:32.281Z,38.47
2023-04-24T14:26:00.484Z,38.72
2023-04-24T14:28:28.751Z,38.21
2023-04-24T14:30:56.548Z,38.35
2023-04-24T14:33:24.660Z,38.32
2023-04-24T14:35:53.070Z,38.59
2023-04-24T14:38:21.023Z,38.48
2023-04-24T14:43:19.819Z,38.39
2023-04-24T14:45:47.656Z,38.45
2023-04-24T14:48:15.781Z,38.01
2023-04-24T14:50:43.806Z,38.51
2023-04-24T14:53:11.916Z,37.94
2023-04-24T14:55:40.294Z,37.97
2023-04-24T14:58:08.279Z,37.99
2023-04-24T15:00:36.153Z,37.97
2023-04-24T15:03:04.804Z,37.75
2023-04-24T15:05:34.216Z,37.44
2023-04-24T15:08:02.624Z,37.59
2023-04-24T15:10:30.847Z,37.82
2023-04-24T15:12:58.798Z,37.57
2023-04-24T15:15:27.350Z,37.98
2023-04-24T15:17:55.534Z,37.69
2023-04-24T15:20:30.040Z,37.96
2023-04-24T15:23:08.562Z,37.80
2023-04-24T15:25:37.513Z,37.83
2023-04-24T15:28:06.416Z,37.54
2023-04-24T15:30:34.640Z,37.87
2023-04-24T15:33:02.934Z,37.88
2023-04-24T15:35:31.110Z,37.92
2023-04-24T15:37:59.236Z,38.09
2023-04-24T15:40:27.304Z,38.37
2023-04-24T15:42:55.382Z,37.83
2023-04-24T15:45:23.679Z,38.12
2023-04-24T15:47:51.860Z,38.06
2023-04-24T15:50:21.895Z,38.31
2023-04-24T15:52:49.825Z,38.23
2023-04-24T15:55:18.123Z,38.19
2023-04-24T15:57:46.133Z,37.98
2023-04-24T16:00:14.510Z,38.24
2023-04-24T16:02:42.527Z,38.09
2023-04-24T16:05:11.774Z,38.11
2023-04-24T16:07:40.489Z,38.22
2023-04-24T16:10:08.975Z,38.38
2023-04-24T16:12:37.258Z,38.43
2023-04-24T16:15:06.396Z,38.78
2023-04-24T16:17:34.811Z,39.21
2023-04-24T16:20:05.276Z,39.26
2023-04-24T16:22:33.264Z,39.33
2023-04-24T16:25:01.278Z,39.43
2023-04-24T16:27:29.287Z,39.28
2023-04-24T16:29:57.414Z,39.31
2023-04-24T16:32:28.900Z,39.41
2023-04-24T16:35:06.992Z,39.49
2023-04-24T16:37:35.633Z,39.54
2023-04-24T16:40:09.139Z,39.53
2023-04-24T16:42:38.285Z,39.57
2023-04-24T16:45:07.546Z,39.70
2023-04-24T16:47:36.578Z,39.78
2023-04-24T16:50:04.969Z,39.95
2023-04-24T16:52:33.033Z,39.91
2023-04-24T16:55:00.998Z,39.97
2023-04-24T16:57:28.946Z,40.00
2023-04-24T16:59:56.823Z,40.23
2023-04-24T17:02:24.799Z,40.46
2023-04-24T17:04:53.063Z,40.33
2023-04-24T17:07:21.284Z,40.53
2023-04-24T17:09:49.614Z,40.53
2023-04-24T17:12:17.683Z,40.72
2023-04-24T17:14:45.888Z,40.93
2023-04-24T17:17:14.054Z,41.13
2023-04-24T17:19:42.995Z,41.39
2023-04-24T17:22:10.963Z,41.57
2023-04-24T17:24:39.202Z,41.74
2023-04-24T17:27:14.455Z,41.87
2023-04-24T17:29:43.618Z,41.71
2023-04-24T17:32:12.712Z,42.08
2023-04-24T17:34:41.205Z,42.65
2023-04-24T17:37:09.431Z,42.75
2023-04-24T17:39:37.464Z,42.64
2023-04-24T17:42:05.609Z,43.05
2023-04-24T17:44:33.546Z,43.17
2023-04-24T17:47:01.652Z,43.39
2023-04-24T17:49:29.576Z,43.76
2023-04-24T17:51:57.557Z,43.71
2023-04-24T17:54:25.777Z,44.14
2023-04-24T17:56:53.664Z,44.03
2023-04-24T17:59:23.572Z,44.10
2023-04-24T18:01:52.748Z,44.63
2023-04-24T18:04:21.137Z,44.93
2023-04-24T18:06:50.744Z,44.74
2023-04-24T18:09:21.159Z,45.04
2023-04-24T18:11:50.296Z,45.35
2023-04-24T18:14:18.563Z,45.50
2023-04-24T18:16:46.628Z,45.77
2023-04-24T18:19:14.803Z,45.95
2023-04-24T18:21:44.266Z,46.01
2023-04-24T18:24:12.217Z,46.31
2023-04-24T18:26:40.187Z,46.53
2023-04-24T18:29:08.421Z,46.97
2023-04-24T18:31:36.512Z,47.31
2023-04-24T18:34:04.945Z,47.63
2023-04-24T18:36:33.409Z,47.70
2023-04-24T18:39:01.422Z,48.06
2023-04-24T18:41:29.374Z,48.41
2023-04-24T18:43:59.195Z,48.57
2023-04-24T18:46:27.570Z,48.56
2023-04-24T18:48:56.069Z,48.79
2023-04-24T18:51:24.206Z,48.84
2023-04-24T18:53:52.251Z,48.77
2023-04-24T18:56:20.894Z,49.05
2023-04-24T18:58:49.145Z,49.35
2023-04-24T19:04:37.844Z,50.23
2023-04-24T19:07:06.098Z,51.43
2023-04-24T19:09:34.575Z,52.33
2023-04-24T19:12:02.857Z,52.73
2023-04-24T19:14:30.789Z,52.74
2023-04-24T19:17:05.017Z,52.60
2023-04-24T19:19:52.181Z,52.20
2023-04-24T19:22:20.946Z,52.10
2023-04-24T19:24:49.257Z,52.09
2023-04-24T19:27:17.664Z,52.35
2023-04-24T19:29:46.140Z,52.44
2023-04-24T19:32:14.227Z,53.61
2023-04-24T19:34:42.149Z,53.94
2023-04-24T19:37:10.946Z,54.01
2023-04-24T19:39:38.829Z,54.02
2023-04-24T19:42:07.689Z,54.12
2023-04-24T19:44:35.876Z,53.93
2023-04-24T19:47:03.926Z,53.74
2023-04-24T19:49:32.350Z,53.70
2023-04-24T19:52:00.387Z,53.74
2023-04-24T19:54:28.956Z,54.10
2023-04-24T19:56:57.158Z,54.29
2023-04-24T19:59:25.031Z,54.93
2023-04-24T20:01:54.040Z,55.58
2023-04-24T20:04:23.431Z,57.18
2023-04-24T20:06:51.552Z,57.29
2023-04-24T20:09:19.473Z,58.12
2023-04-24T20:11:51.080Z,58.65
2023-04-24T20:14:19.487Z,58.51
2023-04-24T20:16:47.428Z,58.63
2023-04-24T20:19:15.714Z,59.24
2023-04-24T20:21:44.163Z,59.41
2023-04-24T20:24:12.199Z,59.12
2023-04-24T20:26:40.318Z,59.36
2023-04-24T20:29:09.082Z,59.36
2023-04-24T20:31:37.250Z,59.19
2023-04-24T20:34:06.725Z,59.33
2023-04-24T20:36:35.228Z,59.84
2023-04-24T20:39:06.552Z,59.98
2023-04-24T20:41:35.764Z,59.76
2023-04-24T20:44:04.290Z,60.04
2023-04-24T20:46:33.491Z,59.93
2023-04-24T20:49:03.170Z,60.15
2023-04-24T20:51:31.290Z,61.64
2023-04-24T20:53:59.513Z,61.48
2023-04-24T20:56:27.598Z,61.87
2023-04-24T20:58:57.174Z,62.34
2023-04-24T21:01:25.656Z,63.22
2023-04-24T21:03:54.350Z,63.08
2023-04-24T21:06:22.681Z,64.21
2023-04-24T21:08:50.871Z,64.22
2023-04-24T21:11:19.124Z,64.60
2023-04-24T21:13:47.461Z,65.21
2023-04-24T21:16:15.790Z,66.22
2023-04-24T21:18:43.893Z,67.03
2023-04-24T21:21:11.798Z,67.37
2023-04-24T21:23:39.860Z,67.04
2023-04-24T21:26:07.897Z,67.01
2023-04-24T21:28:36.667Z,68.15
2023-04-24T21:31:04.679Z,67.97
2023-04-24T21:33:33.378Z,68.76
2023-04-24T21:36:01.385Z,68.92
2023-04-24T21:38:29.668Z,68.97
2023-04-24T21:40:57.720Z,68.84
2023-04-24T21:43:49.810Z,68.98
2023-04-24T21:46:13.527Z,68.94
2023-04-24T21:48:41.583Z,69.33
2023-04-24T21:51:09.931Z,69.86
2023-04-24T21:53:37.846Z,70.57
2023-04-24T21:56:06.192Z,71.69
2023-04-24T21:58:35.255Z,72.69
2023-04-24T22:01:03.439Z,73.19
2023-04-24T22:03:32.166Z,73.49
2023-04-24T22:06:01.045Z,73.87
2023-04-24T22:08:29.122Z,74.19
2023-04-24T22:10:57.155Z,73.93
2023-04-24T22:13:25.147Z,74.05
2023-04-24T22:15:53.185Z,75.10
2023-04-24T22:18:24.618Z,75.06
2023-04-24T22:20:56.185Z,74.92
2023-04-24T22:23:24.534Z,75.24
2023-04-24T22:25:52.797Z,75.40
2023-04-24T22:28:20.952Z,75.63
2023-04-24T22:30:49.011Z,75.79
2023-04-24T22:33:17.218Z,76.13
2023-04-24T22:35:45.277Z,76.25
2023-04-24T22:38:13.293Z,76.34
2023-04-24T22:40:42.632Z,76.09
2023-04-24T22:43:10.621Z,76.09
2023-04-24T22:45:38.887Z,76.39
2023-04-24T22:48:06.861Z,76.25
2023-04-24T22:50:34.916Z,76.89
2023-04-24T22:53:02.886Z,76.91
2023-04-24T22:55:31.468Z,77.31
2023-04-24T22:58:01.549Z,79.14
2023-04-24T23:00:29.613Z,78.57
2023-04-24T23:02:57.795Z,78.66
2023-04-24T23:05:26.981Z,78.69
2023-04-24T23:07:55.053Z,78.73
2023-04-24T23:10:24.340Z,78.85
2023-04-24T23:12:52.450Z,78.76
2023-04-24T23:15:20.908Z,79.15
2023-04-24T23:17:49.023Z,79.43
2023-04-24T23:20:17.213Z,80.47
2023-04-24T23:22:45.235Z,80.52
2023-04-24T23:25:13.164Z,80.41
2023-04-24T23:27:42.042Z,80.73
2023-04-24T23:30:10.702Z,80.97
2023-04-24T23:32:38.728Z,80.58
2023-04-24T23:35:08.912Z,81.06
2023-04-24T23:37:38.548Z,81.91
2023-04-24T23:40:10.074Z,81.38
2023-04-24T23:42:38.208Z,81.42
2023-04-24T23:45:08.910Z,81.49
2023-04-24T23:47:38.068Z,82.25
2023-04-24T23:50:06.847Z,82.77
2023-04-24T23:52:35.644Z,83.06
2023-04-24T23:55:04.790Z,82.67
2023-04-24T23:57:33.341Z,83.38
